Time;durP1;ratioP1;P1;durP2;ratioP2;P2;SDS_P1;SDS_P2;PMS_P1;PMS_P2;Temp;Humidity;BMP_temperature;BMP_pressure;BME280_temperature;BME280_humidity;BME280_pressure;Samples;Min_cycle;Max_cycle;Signal;HPM_P1;HPM_P2
2022/11/02 00:00:54;;;;;;;;;;;12.30;66.30;;;7.94;100.00;96230.22;4988965;28;20283;-46
2022/11/02 00:03:20;;;;;;;;;;;12.30;66.30;;;7.93;100.00;96244.53;4990892;28;19921;-46
2022/11/02 00:05:49;;;;;;;;;;;12.30;66.30;;;7.89;100.00;96248.66;4998848;28;19963;-46
2022/11/02 00:08:18;;;;;;;;;;;12.30;66.50;;;7.88;100.00;96249.69;5012647;28;19915;-47
2022/11/02 00:10:46;;;;;;;;;;;12.30;66.30;;;7.83;100.00;96247.75;4965475;28;20459;-47
2022/11/02 00:13:21;;;;;;;;;;;12.20;66.20;;;7.82;100.00;96253.28;4994655;28;19973;-48
2022/11/02 00:16:10;;;;;;;;;;;12.20;66.30;;;7.83;100.00;96252.22;5007227;28;20691;-46
2022/11/02 00:18:46;;;;;;;;;;;12.20;66.40;;;7.79;100.00;96251.88;5003200;28;19912;-46
2022/11/02 00:21:16;;;;;;;;;;;12.20;66.50;;;7.76;100.00;96249.69;4977882;28;19909;-57
2022/11/02 00:23:44;;;;;;;;;;;12.20;66.50;;;7.73;100.00;96239.53;4988465;28;19944;-47
2022/11/02 00:26:20;;;;;;;;;;;12.20;66.60;;;7.71;100.00;96239.00;4994616;28;19917;-46
2022/11/02 00:28:47;;;;;;;;;;;12.10;66.50;;;7.67;100.00;96245.75;4981985;28;19921;-46
2022/11/02 00:31:12;;;;;;;;;;;12.20;66.60;;;7.69;100.00;96243.69;4983128;28;19916;-46
2022/11/02 00:33:41;;;;;;;;;;;12.10;66.60;;;7.68;100.00;96247.41;5006731;28;19914;-48
2022/11/02 00:36:07;;;;;;;;;;;12.10;66.60;;;7.62;100.00;96248.31;4994170;28;19917;-48
2022/11/02 00:38:33;;;;;;;;;;;12.10;66.60;;;7.61;100.00;96249.34;4978181;28;19912;-46
2022/11/02 00:40:59;;;;;;;;;;;12.00;66.60;;;7.60;100.00;96251.19;4987221;28;20330;-48
2022/11/02 00:43:24;;;;;;;;;;;12.00;66.70;;;7.58;100.00;96255.94;4977800;28;19913;-46
2022/11/02 00:45:50;;;;;;;;;;;12.00;66.70;;;7.54;100.00;96253.94;5000802;28;19913;-46
2022/11/02 00:48:16;;;;;;;;;;;12.00;66.80;;;7.51;100.00;96257.06;4990014;28;20260;-46
2022/11/02 00:50:44;;;;;;;;;;;12.00;66.80;;;7.51;100.00;96260.50;4994370;28;19978;-46
2022/11/02 00:53:13;;;;;;;;;;;12.00;67.00;;;7.58;100.00;96265.69;4996457;28;20395;-46
2022/11/02 00:55:42;;;;;;;;;;;12.00;67.00;;;7.63;100.00;96268.47;4993884;28;19921;-46
2022/11/02 00:58:08;;;;;;;;;;;12.10;67.20;;;7.69;100.00;96272.88;5005318;28;20007;-46
2022/11/02 01:00:39;;;;;;;;;;;12.10;67.30;;;7.74;100.00;96262.41;5011908;28;20443;-49
2022/11/02 01:03:05;;;;;;;;;;;12.10;67.30;;;7.83;100.00;96268.97;4994122;28;19948;-48
2022/11/02 01:05:30;;;;;;;;;;;12.20;67.40;;;7.90;100.00;96274.16;4993941;28;19948;-46
2022/11/02 01:07:59;;;;;;;;;;;12.30;67.50;;;7.98;100.00;96273.00;5011380;28;19916;-46
2022/11/02 01:10:28;;;;;;;;;;;12.40;67.60;;;8.06;100.00;96277.97;4991700;28;19914;-46
2022/11/02 01:12:54;;;;;;;;;;;12.40;67.60;;;8.13;100.00;96273.34;5007654;28;19909;-46
2022/11/02 01:15:19;;;;;;;;;;;12.50;67.60;;;8.21;100.00;96265.03;4991118;28;20384;-53
2022/11/02 01:17:48;;;;;;;;;;;12.60;67.60;;;8.29;100.00;96269.97;4993851;28;19916;-48
2022/11/02 01:20:14;;;;;;;;;;;12.70;67.60;;;8.37;100.00;96275.94;5011158;28;19959;-47
2022/11/02 01:22:45;;;;;;;;;;;12.70;67.60;;;8.45;100.00;96276.44;4984919;28;19956;-49
2022/11/02 01:25:14;;;;;;;;;;;12.80;67.70;;;8.54;100.00;96266.28;5011022;28;19912;-47
2022/11/02 01:27:40;;;;;;;;;;;12.90;67.70;;;8.62;100.00;96265.09;4988078;28;19917;-46
2022/11/02 01:30:09;;;;;;;;;;;12.90;67.80;;;8.68;100.00;96264.16;5004120;28;20261;-46
2022/11/02 01:32:38;;;;;;;;;;;13.00;67.80;;;8.74;100.00;96266.69;4976827;28;19909;-47
2022/11/02 01:35:04;;;;;;;;;;;13.10;67.80;;;8.82;100.00;96264.69;5006981;28;20291;-49
2022/11/02 01:37:30;;;;;;;;;;;13.20;67.80;;;8.89;100.00;96268.81;5010861;28;19917;-52
2022/11/02 01:39:56;;;;;;;;;;;13.20;67.80;;;8.98;100.00;96269.25;4965219;28;19920;-46
2022/11/02 01:42:25;;;;;;;;;;;13.30;67.80;;;9.07;100.00;96275.00;5010755;28;19909;-52
2022/11/02 01:44:53;;;;;;;;;;;13.40;67.80;;;9.13;100.00;96269.53;4976774;28;19913;-46
2022/11/02 01:47:47;;;;;;;;;;;13.50;67.90;;;9.20;100.00;96269.38;4991990;28;19916;-48
2022/11/02 01:50:29;;;;;;;;;;;13.60;67.90;;;9.26;100.00;96271.09;4955383;28;19909;-49
2022/11/02 01:52:59;;;;;;;;;;;13.60;67.80;;;9.31;100.00;96273.00;4976654;28;19910;-47
2022/11/02 01:55:31;;;;;;;;;;;13.70;67.90;;;9.38;100.00;96268.38;4993370;28;19920;-47
2022/11/02 01:58:05;;;;;;;;;;;13.70;67.90;;;9.46;100.00;96263.47;4987365;28;19909;-46
2022/11/02 02:00:31;;;;;;;;;;;13.80;67.90;;;9.54;100.00;96272.91;4967122;28;19963;-48
2022/11/02 02:03:18;;;;;;;;;;;13.90;67.90;;;9.59;100.00;96264.19;5010419;28;20569;-46
2022/11/02 02:06:08;;;;;;;;;;;13.90;67.80;;;9.62;100.00;96253.91;4970168;28;19909;-46
2022/11/02 02:08:44;;;;;;;;;;;14.00;67.80;;;9.67;100.00;96256.63;4993500;28;19916;-46
2022/11/02 02:11:30;;;;;;;;;;;14.10;67.90;;;9.75;100.00;96259.94;4968897;28;19913;-47
2022/11/02 02:14:08;;;;;;;;;;;14.10;67.90;;;9.82;100.00;96261.38;4976716;28;19912;-48
2022/11/02 02:17:05;;;;;;;;;;;14.20;68.00;;;9.85;100.00;96258.22;4979434;28;19941;-47
2022/11/02 02:19:58;;;;;;;;;;;14.20;67.90;;;9.95;100.00;96265.56;5008449;28;19916;-47
2022/11/02 02:22:56;;;;;;;;;;;14.30;68.00;;;9.99;100.00;96263.22;5003110;28;19916;-47
2022/11/02 02:26:07;;;;;;;;;;;14.40;68.10;;;10.05;100.00;96262.22;4979277;28;19959;-47
2022/11/02 02:29:10;;;;;;;;;;;14.50;68.00;;;10.09;100.00;96264.19;4978574;28;19910;-47
2022/11/02 02:32:19;;;;;;;;;;;14.50;68.70;;;10.12;100.00;96268.19;5006148;28;20307;-46
2022/11/02 02:35:20;;;;;;;;;;;14.60;67.90;;;10.12;100.00;96260.19;4929859;28;19916;-48
2022/11/02 02:38:00;;;;;;;;;;;14.70;67.80;;;10.16;100.00;96254.16;4985723;28;20015;-47
2022/11/02 02:40:35;;;;;;;;;;;14.70;67.80;;;10.20;100.00;96249.94;4984232;28;19910;-46
2022/11/02 02:43:39;;;;;;;;;;;14.80;67.80;;;10.20;100.00;96244.63;4980657;28;19958;-49
2022/11/02 02:46:21;;;;;;;;;;;14.80;67.70;;;10.18;100.00;96237.91;4990237;28;19996;-46
2022/11/02 02:48:58;;;;;;;;;;;14.80;67.60;;;10.18;100.00;96241.41;4996505;28;19913;-47
2022/11/02 02:51:36;;;;;;;;;;;14.80;67.60;;;10.24;100.00;96246.78;4994211;28;19909;-46
2022/11/02 02:54:32;;;;;;;;;;;14.80;67.60;;;10.27;100.00;96239.13;4969343;28;20391;-49
2022/11/02 02:57:16;;;;;;;;;;;14.80;67.60;;;10.30;100.00;96238.66;4997679;28;19916;-59
2022/11/02 02:59:45;;;;;;;;;;;14.80;67.70;;;10.27;100.00;96243.66;4988353;28;19916;-47
2022/11/02 03:02:32;;;;;;;;;;;14.80;67.60;;;10.29;100.00;96245.03;5013860;28;19909;-47
2022/11/02 03:04:57;;;;;;;;;;;14.90;67.70;;;10.31;100.00;96240.28;4966627;28;19924;-55
2022/11/02 03:07:31;;;;;;;;;;;14.90;67.60;;;10.32;100.00;96241.88;4993111;28;19909;-51
2022/11/02 03:10:16;;;;;;;;;;;14.90;67.60;;;10.34;100.00;96245.13;4961381;28;19909;-48
2022/11/02 03:13:14;;;;;;;;;;;14.90;67.60;;;10.34;100.00;96246.94;5007738;28;19916;-50
2022/11/02 03:16:06;;;;;;;;;;;14.90;67.60;;;10.35;100.00;96241.38;4992656;28;19929;-58
2022/11/02 03:19:07;;;;;;;;;;;14.90;67.60;;;10.32;100.00;96233.09;4987309;28;20008;-58
2022/11/02 03:21:43;;;;;;;;;;;14.90;67.70;;;10.32;100.00;96231.22;4991817;28;20276;-54
2022/11/02 03:24:50;;;;;;;;;;;14.90;67.70;;;10.33;100.00;96238.16;4992788;28;20324;-58
2022/11/02 03:27:47;;;;;;;;;;;14.90;67.70;;;10.35;100.00;96236.06;5013227;28;19909;-58
2022/11/02 03:30:21;;;;;;;;;;;14.90;67.70;;;10.35;100.00;96241.38;5000331;28;20033;-52
2022/11/02 03:33:17;;;;;;;;;;;14.90;67.70;;;10.32;100.00;96236.56;4979376;28;20266;-53
2022/11/02 03:36:14;;;;;;;;;;;14.90;67.70;;;10.36;100.00;96242.19;4977708;28;19913;-52
2022/11/02 03:39:21;;;;;;;;;;;14.90;67.70;;;10.38;100.00;96248.09;4998293;28;19916;-53
2022/11/02 03:41:48;;;;;;;;;;;15.00;67.80;;;10.38;100.00;96243.56;4977819;28;19909;-55
2022/11/02 03:44:26;;;;;;;;;;;15.00;67.80;;;10.40;100.00;96241.47;4995045;28;19909;-56
2022/11/02 03:46:59;;;;;;;;;;;15.00;67.80;;;10.42;100.00;96243.88;4970443;28;19920;-54
2022/11/02 03:49:30;;;;;;;;;;;15.00;67.80;;;10.41;100.00;96239.59;4979323;28;20003;-52
2022/11/02 03:52:04;;;;;;;;;;;15.00;67.70;;;10.41;100.00;96245.72;4989855;28;20003;-58
2022/11/02 03:54:42;;;;;;;;;;;15.00;67.70;;;10.42;100.00;96236.69;4988968;28;19920;-54
2022/11/02 03:57:26;;;;;;;;;;;15.00;67.70;;;10.44;100.00;96248.97;4995340;28;20360;-56
2022/11/02 04:00:11;;;;;;;;;;;15.00;67.70;;;10.41;100.00;96248.41;5007698;28;20395;-52
2022/11/02 04:02:42;;;;;;;;;;;15.00;67.80;;;10.44;100.00;96256.94;5012283;28;20287;-54
2022/11/02 04:05:11;;;;;;;;;;;15.00;67.80;;;10.47;100.00;96259.94;4987344;28;20335;-52
2022/11/02 04:10:31;;;;;;;;;;;15.00;67.90;;;10.50;100.00;96255.94;4988802;28;19915;-53
2022/11/02 04:15:44;;;;;;;;;;;15.10;67.90;;;10.51;100.00;96250.38;5008360;28;19932;-55
2022/11/02 04:21:03;;;;;;;;;;;15.10;67.80;;;10.53;100.00;96250.94;4997759;28;19916;-54
2022/11/02 04:26:27;;;;;;;;;;;15.10;67.80;;;10.56;100.00;96262.94;4968637;28;19952;-54
2022/11/02 04:28:53;;;;;;;;;;;15.20;67.80;;;10.55;100.00;96262.13;5000500;28;20018;-52
2022/11/02 04:31:19;;;;;;;;;;;15.20;67.70;;;10.55;100.00;96267.47;4994633;28;19909;-54
2022/11/02 04:33:44;;;;;;;;;;;15.20;67.60;;;10.56;100.00;96274.44;5008935;28;19941;-52
2022/11/02 04:36:13;;;;;;;;;;;15.20;67.60;;;10.57;100.00;96264.56;4998100;28;20287;-54
2022/11/02 04:38:45;;;;;;;;;;;15.20;67.60;;;10.57;100.00;96272.56;5008329;28;19999;-56
2022/11/02 04:41:42;;;;;;;;;;;15.20;67.50;;;10.58;100.00;96279.50;4988045;28;19916;-53
2022/11/02 04:44:13;;;;;;;;;;;15.20;67.50;;;10.55;100.00;96269.34;5011345;28;19909;-54
2022/11/02 04:46:42;;;;;;;;;;;15.20;67.50;;;10.52;100.00;96273.28;5001269;28;19909;-54
2022/11/02 04:49:10;;;;;;;;;;;15.20;67.50;;;10.54;100.00;96278.38;4994240;28;19946;-55
2022/11/02 04:51:38;;;;;;;;;;;15.20;67.60;;;10.54;100.00;96284.50;4971591;28;19910;-56
2022/11/02 04:54:05;;;;;;;;;;;15.20;67.60;;;10.54;100.00;96289.03;4991550;28;19916;-57
2022/11/02 04:56:31;;;;;;;;;;;15.20;67.60;;;10.56;100.00;96293.06;4993802;28;19913;-52
2022/11/02 04:58:59;;;;;;;;;;;15.20;67.70;;;10.54;100.00;96305.81;4986592;28;19916;-54
2022/11/02 05:01:28;;;;;;;;;;;15.20;67.60;;;10.55;100.00;96294.09;4993972;28;19916;-54
2022/11/02 05:03:55;;;;;;;;;;;15.20;67.60;;;10.57;100.00;96304.53;5005811;28;20000;-53
2022/11/02 05:06:23;;;;;;;;;;;15.20;67.60;;;10.56;100.00;96300.25;4955008;28;19916;-52
2022/11/02 05:08:50;;;;;;;;;;;15.20;67.60;;;10.57;100.00;96297.34;4960815;28;19913;-52
2022/11/02 05:11:16;;;;;;;;;;;15.20;67.70;;;10.59;100.00;96297.09;4980971;28;19962;-54
2022/11/02 05:13:44;;;;;;;;;;;15.20;67.70;;;10.58;100.00;96292.81;4976963;28;20367;-50
2022/11/02 05:16:16;;;;;;;;;;;15.20;67.70;;;10.58;100.00;96295.47;5001534;28;19918;-51
2022/11/02 05:18:42;;;;;;;;;;;15.10;67.70;;;10.55;100.00;96291.44;5003975;28;19959;-51
2022/11/02 05:21:14;;;;;;;;;;;15.10;67.70;;;10.58;100.00;96292.81;4993754;28;19909;-52
2022/11/02 05:23:40;;;;;;;;;;;15.10;67.70;;;10.57;100.00;96278.69;4986041;28;19912;-55
2022/11/02 05:26:11;;;;;;;;;;;15.10;67.80;;;10.55;100.00;96291.44;5010995;28;19913;-51
2022/11/02 05:28:37;;;;;;;;;;;15.10;67.80;;;10.59;100.00;96297.09;4973105;28;20012;-53
2022/11/02 05:31:04;;;;;;;;;;;15.10;67.90;;;10.59;100.00;96300.56;4993396;28;20003;-51
2022/11/02 05:33:31;;;;;;;;;;;15.10;67.90;;;10.59;100.00;96302.41;4990476;28;19913;-50
2022/11/02 05:35:58;;;;;;;;;;;15.10;67.90;;;10.59;100.00;96299.75;5011011;28;19920;-52
2022/11/02 05:38:25;;;;;;;;;;;15.10;68.00;;;10.59;100.00;96307.75;4977112;28;19909;-51
2022/11/02 05:40:58;;;;;;;;;;;15.10;68.00;;;10.58;100.00;96300.81;4987105;28;19909;-51
2022/11/02 05:43:25;;;;;;;;;;;15.10;68.00;;;10.59;100.00;96305.91;4993081;28;19908;-51
2022/11/02 05:46:00;;;;;;;;;;;15.10;68.00;;;10.59;100.00;96307.75;4984568;28;19914;-54
2022/11/02 05:48:30;;;;;;;;;;;15.10;68.00;;;10.60;100.00;96304.84;5004482;28;19909;-53
2022/11/02 05:50:58;;;;;;;;;;;15.10;68.00;;;10.61;100.00;96317.09;4993786;28;19962;-53
2022/11/02 05:53:31;;;;;;;;;;;15.10;68.10;;;10.61;100.00;96318.97;4963334;28;19913;-56
2022/11/02 05:56:03;;;;;;;;;;;15.10;68.10;;;10.61;100.00;96321.63;5010770;28;19913;-52
2022/11/02 05:58:32;;;;;;;;;;;15.10;68.10;;;10.60;100.00;96318.16;4972562;28;19974;-55
2022/11/02 06:01:05;;;;;;;;;;;15.10;68.10;;;10.60;100.00;96322.69;4976979;28;19974;-52
2022/11/02 06:03:32;;;;;;;;;;;15.10;68.10;;;10.59;100.00;96327.22;4972650;28;20007;-51
2022/11/02 06:06:21;;;;;;;;;;;15.10;68.10;;;10.59;100.00;96326.38;4971498;28;19912;-52
2022/11/02 06:08:47;;;;;;;;;;;15.10;68.10;;;10.59;100.00;96327.22;5002825;28;20024;-54
2022/11/02 06:11:14;;;;;;;;;;;15.10;68.80;;;10.59;100.00;96329.88;4997520;28;19912;-51
2022/11/02 06:13:43;;;;;;;;;;;15.10;68.10;;;10.61;100.00;96333.09;4992588;28;20383;-52
2022/11/02 06:16:11;;;;;;;;;;;15.10;68.10;;;10.60;100.00;96338.69;4984011;28;19936;-53
2022/11/02 06:18:37;;;;;;;;;;;15.10;68.10;;;10.59;100.00;96337.03;5001422;28;19909;-54
2022/11/02 06:21:04;;;;;;;;;;;15.10;68.10;;;10.60;100.00;96338.69;5010248;28;19909;-53
2022/11/02 06:23:30;;;;;;;;;;;15.10;68.10;;;10.62;100.00;96350.69;4969405;28;19913;-53
2022/11/02 06:25:58;;;;;;;;;;;15.10;68.10;;;10.62;100.00;96352.53;4992944;28;19916;-52
2022/11/02 06:28:25;;;;;;;;;;;15.10;68.20;;;10.60;100.00;96352.78;4959331;28;20284;-52
2022/11/02 06:30:51;;;;;;;;;;;15.20;68.30;;;10.62;100.00;96360.53;5008149;28;19940;-55
2022/11/02 06:33:19;;;;;;;;;;;15.20;68.30;;;10.64;100.00;96359.25;4992475;28;19913;-53
2022/11/02 06:35:48;;;;;;;;;;;15.20;68.30;;;10.62;100.00;96363.19;4956687;28;19909;-52
2022/11/02 06:38:14;;;;;;;;;;;15.20;68.30;;;10.63;100.00;96364.81;4986331;28;19909;-52
2022/11/02 06:40:51;;;;;;;;;;;15.30;68.30;;;10.65;100.00;96370.69;4982343;28;19916;-50
2022/11/02 06:43:19;;;;;;;;;;;15.30;68.30;;;10.63;100.00;96376.28;4972152;28;20273;-55
2022/11/02 06:45:45;;;;;;;;;;;15.30;68.20;;;10.66;100.00;96372.31;5006279;28;20443;-54
2022/11/02 06:48:17;;;;;;;;;;;15.30;68.20;;;10.68;100.00;96372.06;5005466;28;20003;-54
2022/11/02 06:50:46;;;;;;;;;;;15.30;68.20;;;10.71;100.00;96382.25;4976319;28;19935;-54
2022/11/02 06:53:12;;;;;;;;;;;15.40;68.20;;;10.74;100.00;96390.53;4997611;28;19963;-52
2022/11/02 06:55:53;;;;;;;;;;;15.30;68.20;;;10.76;100.00;96388.44;5010216;28;19913;-51
2022/11/02 06:58:23;;;;;;;;;;;15.40;68.20;;;10.78;100.00;96386.34;4988367;28;19913;-50
2022/11/02 07:01:07;;;;;;;;;;;15.40;68.20;;;10.83;100.00;96398.94;5010242;28;19916;-56
2022/11/02 07:03:34;;;;;;;;;;;15.50;68.30;;;10.85;100.00;96399.50;4990567;28;20426;-54
2022/11/02 07:06:03;;;;;;;;;;;15.50;68.30;;;10.89;100.00;96397.94;4991646;28;19913;-54
2022/11/02 07:08:31;;;;;;;;;;;15.50;68.30;;;10.89;100.00;96400.63;4992462;28;20060;-53
2022/11/02 07:10:57;;;;;;;;;;;15.50;68.20;;;10.93;100.00;96403.59;4965822;28;19910;-48
2022/11/02 07:13:31;;;;;;;;;;;15.60;68.20;;;10.96;100.00;96403.09;5009613;28;19920;-53
2022/11/02 07:15:57;;;;;;;;;;;15.60;68.20;;;10.94;100.00;96414.03;4974237;28;20429;-51
2022/11/02 07:18:28;;;;;;;;;;;15.60;68.20;;;10.97;100.00;96413.53;5003531;28;19909;-53
2022/11/02 07:20:58;;;;;;;;;;;15.70;68.20;;;10.98;100.00;96419.66;5013619;28;19917;-52
2022/11/02 07:23:24;;;;;;;;;;;15.70;68.20;;;11.01;100.00;96419.16;4969892;28;19921;-55
2022/11/02 07:25:50;;;;;;;;;;;15.70;68.20;;;11.03;100.00;96430.38;4959471;28;19917;-54
2022/11/02 07:28:16;;;;;;;;;;;15.70;68.20;;;11.05;100.00;96436.28;4990932;28;19996;-54
2022/11/02 07:30:42;;;;;;;;;;;15.80;68.20;;;11.06;100.00;96433.38;4985838;28;21570;-50
2022/11/02 07:33:07;;;;;;;;;;;15.80;68.20;;;11.14;100.00;96437.47;4989860;28;19910;-50
2022/11/02 07:35:34;;;;;;;;;;;15.90;68.10;;;11.17;100.00;96444.16;4993177;28;19916;-52
2022/11/02 07:38:06;;;;;;;;;;;15.90;68.10;;;11.19;100.00;96436.72;4958598;28;19914;-52
2022/11/02 07:40:34;;;;;;;;;;;15.90;68.00;;;11.22;100.00;96444.22;4971896;28;19909;-54
2022/11/02 07:43:02;;;;;;;;;;;16.00;68.10;;;11.31;100.00;96440.06;4991264;28;19909;-49
2022/11/02 07:45:28;;;;;;;;;;;16.00;68.00;;;11.35;100.00;96439.34;4945815;28;19917;-53
2022/11/02 07:47:59;;;;;;;;;;;16.10;68.00;;;11.42;100.00;96433.81;5012917;28;20451;-55
2022/11/02 07:50:25;;;;;;;;;;;16.30;68.10;;;11.52;100.00;96438.47;5003769;28;19963;-51
2022/11/02 07:52:55;;;;;;;;;;;16.30;67.90;;;11.55;100.00;96438.75;4976956;28;20315;-55
2022/11/02 07:55:30;;;;;;;;;;;16.40;67.80;;;11.63;100.00;96437.53;5012543;28;19917;-50
2022/11/02 07:58:00;;;;;;;;;;;16.50;67.70;;;11.72;100.00;96444.03;4977740;28;20434;-53
2022/11/02 08:00:30;;;;;;;;;;;16.60;67.70;;;11.77;100.00;96445.94;5012282;28;19915;-53
2022/11/02 08:03:01;;;;;;;;;;;16.70;67.60;;;11.84;100.00;96451.06;4995188;28;19909;-53
2022/11/02 08:05:29;;;;;;;;;;;16.80;67.50;;;11.87;100.00;96448.75;4995478;28;19932;-51
2022/11/02 08:08:15;;;;;;;;;;;16.90;67.40;;;11.98;100.00;96450.47;5011551;28;19909;-55
2022/11/02 08:10:46;;;;;;;;;;;17.00;67.30;;;12.06;100.00;96448.41;4966056;28;19913;-54
2022/11/02 08:13:19;;;;;;;;;;;17.10;68.10;;;12.11;100.00;96454.59;4992364;28;19913;-54
2022/11/02 08:15:50;;;;;;;;;;;17.20;67.20;;;12.16;100.00;96449.31;4991074;28;19918;-55
2022/11/02 08:18:22;;;;;;;;;;;17.30;67.10;;;12.23;100.00;96457.13;4975422;28;19988;-52
2022/11/02 08:20:49;;;;;;;;;;;17.40;67.00;;;12.26;100.00;96453.94;4978319;28;19980;-55
2022/11/02 08:23:19;;;;;;;;;;;17.50;66.80;;;12.35;100.00;96454.28;4974998;28;19963;-56
2022/11/02 08:25:48;;;;;;;;;;;17.50;66.70;;;12.40;100.00;96459.66;4975332;28;20013;-53
2022/11/02 08:28:40;;;;;;;;;;;17.60;66.60;;;12.39;100.00;96466.88;4974939;28;19916;-56
2022/11/02 08:31:17;;;;;;;;;;;17.60;66.50;;;12.40;100.00;96460.47;4987652;28;19917;-54
2022/11/02 08:33:52;;;;;;;;;;;17.70;66.40;;;12.45;98.93;96460.50;4991359;28;19910;-56
2022/11/02 08:36:24;;;;;;;;;;;17.80;66.40;;;12.47;98.01;96461.06;5002546;28;19924;-58
2022/11/02 08:38:50;;;;;;;;;;;17.80;66.10;;;12.56;98.54;96466.72;4989824;28;20349;-58
2022/11/02 08:41:16;;;;;;;;;;;17.90;66.00;;;12.65;96.35;96464.41;4994301;28;19916;-54
2022/11/02 08:43:44;;;;;;;;;;;17.90;65.90;;;12.63;95.25;96463.84;4993824;28;20294;-58
2022/11/02 08:46:13;;;;;;;;;;;18.00;65.80;;;12.76;94.88;96463.41;4992277;28;19925;-58
2022/11/02 08:48:42;;;;;;;;;;;18.00;65.70;;;12.71;92.93;96474.88;5010313;28;20403;-58
2022/11/02 08:51:17;;;;;;;;;;;18.00;65.70;;;12.72;90.23;96464.97;5000768;28;19916;-57
2022/11/02 08:53:50;;;;;;;;;;;18.00;65.60;;;12.66;87.40;96466.84;4985902;28;19909;-55
2022/11/02 08:56:24;;;;;;;;;;;18.10;65.40;;;12.80;88.67;96463.72;4992541;28;19980;-55
2022/11/02 08:58:53;;;;;;;;;;;18.10;65.10;;;12.86;87.51;96466.16;4995411;28;20002;-55
2022/11/02 09:01:18;;;;;;;;;;;18.20;65.00;;;12.96;88.74;96466.22;5011535;28;19919;-53
2022/11/02 09:03:50;;;;;;;;;;;18.30;65.00;;;13.06;88.52;96462.78;5003491;28;19909;-55
2022/11/02 09:06:16;;;;;;;;;;;18.30;64.80;;;13.27;88.65;96460.28;4993959;28;19964;-55
2022/11/02 09:09:08;;;;;;;;;;;18.50;64.70;;;13.31;84.66;96466.72;4980284;28;19952;-56
2022/11/02 09:11:34;;;;;;;;;;;18.60;64.50;;;13.12;78.60;96461.75;4986012;28;20012;-53
2022/11/02 09:14:01;;;;;;;;;;;18.60;64.10;;;13.19;82.05;96459.69;5007138;28;19912;-58
2022/11/02 09:16:26;;;;;;;;;;;18.60;63.70;;;13.23;80.70;96465.31;4999709;28;20388;-51
2022/11/02 09:18:52;;;;;;;;;;;18.60;63.50;;;13.15;78.81;96465.78;5004124;28;19909;-52
2022/11/02 09:21:26;;;;;;;;;;;18.60;63.30;;;13.25;80.41;96465.88;4987098;28;19913;-52
2022/11/02 09:23:57;;;;;;;;;;;18.60;63.10;;;13.30;79.80;96467.78;5010727;28;19932;-53
2022/11/02 09:26:29;;;;;;;;;;;18.70;62.90;;;13.42;79.39;96463.03;5001151;28;19936;-49
2022/11/02 09:28:55;;;;;;;;;;;18.90;62.70;;;13.39;76.26;96467.03;5002316;28;20030;-48
2022/11/02 09:31:28;;;;;;;;;;;19.00;62.30;;;13.43;78.39;96472.66;5011016;28;19975;-53
2022/11/02 09:34:00;;;;;;;;;;;19.20;61.90;;;13.62;78.22;96473.00;4980401;28;20346;-54
2022/11/02 09:36:25;;;;;;;;;;;19.40;61.60;;;13.80;74.93;96466.38;5011013;28;19939;-54
2022/11/02 09:38:51;;;;;;;;;;;19.50;61.30;;;13.94;75.97;96464.81;5001683;28;19918;-55
2022/11/02 09:41:33;;;;;;;;;;;19.70;61.10;;;14.11;75.62;96470.75;5002602;28;20335;-53
2022/11/02 09:44:33;;;;;;;;;;;19.90;61.00;;;14.21;73.17;96469.16;4977584;28;19924;-54
2022/11/02 09:47:02;;;;;;;;;;;20.10;60.80;;;14.14;72.07;96477.47;4951239;28;19992;-51
2022/11/02 09:49:33;;;;;;;;;;;20.20;60.20;;;14.33;72.62;96473.19;5010767;28;19909;-56
2022/11/02 09:52:08;;;;;;;;;;;20.30;59.80;;;14.47;70.26;96473.47;4997933;28;20003;-52
2022/11/02 09:54:50;;;;;;;;;;;20.50;59.70;;;14.49;69.74;96470.53;4977309;28;19909;-51
2022/11/02 09:57:37;;;;;;;;;;;20.60;59.40;;;14.48;71.44;96476.97;4976110;28;20372;-54
2022/11/02 10:00:11;;;;;;;;;;;20.70;58.90;;;14.54;68.98;96473.22;5008530;28;19913;-51
2022/11/02 10:03:06;;;;;;;;;;;20.70;58.70;;;14.71;70.38;96478.34;4986837;28;20299;-57
2022/11/02 10:06:03;;;;;;;;;;;20.80;58.60;;;14.70;70.19;96472.16;5001454;28;19963;-52
2022/11/02 10:09:13;;;;;;;;;;;20.80;58.40;;;14.71;66.99;96471.09;4982684;28;20281;-49
2022/11/02 10:12:15;;;;;;;;;;;20.80;58.20;;;14.80;68.05;96471.34;4986308;28;20058;-54
2022/11/02 10:15:17;;;;;;;;;;;20.80;57.90;;;14.71;67.60;96472.97;5007815;28;19916;-50
2022/11/02 10:17:50;;;;;;;;;;;20.90;57.60;;;14.81;67.94;96473.75;4996860;28;19913;-51
2022/11/02 10:21:07;;;;;;;;;;;20.90;57.60;;;15.06;69.08;96476.69;4972148;28;19918;-52
2022/11/02 10:24:00;;;;;;;;;;;21.00;57.50;;;15.11;67.00;96471.31;4987846;28;19913;-49
2022/11/02 10:26:55;;;;;;;;;;;21.20;57.20;;;15.20;66.84;96475.88;4985431;28;20392;-51
2022/11/02 10:29:43;;;;;;;;;;;21.40;56.80;;;15.30;65.82;96468.88;5010146;28;19913;-51
2022/11/02 10:32:16;;;;;;;;;;;21.50;56.50;;;15.26;65.07;96465.91;5004221;28;19920;-51
2022/11/02 10:34:44;;;;;;;;;;;21.70;56.10;;;15.11;65.11;96458.72;4990163;28;19917;-55
2022/11/02 10:37:35;;;;;;;;;;;21.70;55.70;;;15.03;67.46;96472.66;4976397;28;19913;-53
2022/11/02 10:40:32;;;;;;;;;;;21.70;55.30;;;15.39;66.33;96462.66;4984833;28;20395;-53
2022/11/02 10:43:34;;;;;;;;;;;21.80;55.40;;;15.64;65.25;96460.97;5009836;28;19909;-55
2022/11/02 10:46:33;;;;;;;;;;;21.90;55.60;;;15.68;64.00;96457.47;4977012;28;19909;-53
2022/11/02 10:49:08;;;;;;;;;;;22.00;55.30;;;15.69;64.69;96461.75;5010354;28;19962;-54
2022/11/02 10:51:37;;;;;;;;;;;22.00;55.10;;;15.58;65.10;96460.16;4965766;28;20040;-53
2022/11/02 10:54:21;;;;;;;;;;;22.10;55.10;;;15.41;64.83;96452.44;4996517;28;20311;-52
2022/11/02 10:56:49;;;;;;;;;;;22.00;54.80;;;15.34;64.18;96446.56;4964227;28;19928;-55
2022/11/02 10:59:22;;;;;;;;;;;22.00;54.80;;;15.36;64.42;96448.97;4996414;28;19913;-49
2022/11/02 11:02:01;;;;;;;;;;;21.90;54.70;;;15.38;63.61;96444.13;5013325;28;20257;-51
2022/11/02 11:04:30;;;;;;;;;;;21.90;54.70;;;15.35;62.88;96442.78;5003713;28;19909;-54
2022/11/02 11:07:03;;;;;;;;;;;21.90;54.70;;;15.46;63.62;96436.31;5014079;28;20291;-54
2022/11/02 11:09:47;;;;;;;;;;;22.00;54.60;;;15.60;63.61;96433.03;4985671;28;20318;-51
2022/11/02 11:12:31;;;;;;;;;;;22.00;54.50;;;15.80;64.80;96432.19;5013257;28;20339;-50
2022/11/02 11:15:01;;;;;;;;;;;22.00;54.50;;;15.84;62.12;96419.78;4987577;28;20347;-52
2022/11/02 11:17:33;;;;;;;;;;;22.10;54.50;;;15.83;64.05;96421.69;4978942;28;20276;-51
2022/11/02 11:20:00;;;;;;;;;;;22.10;54.40;;;15.85;62.68;96408.75;4977568;28;20368;-52
2022/11/02 11:22:39;;;;;;;;;;;22.10;54.20;;;15.90;62.29;96408.72;4992569;28;19917;-54
2022/11/02 11:25:25;;;;;;;;;;;22.10;54.10;;;16.07;62.43;96404.84;4996512;28;19909;-50
2022/11/02 11:27:57;;;;;;;;;;;22.20;54.10;;;16.06;60.92;96408.63;5002999;28;19939;-49
2022/11/02 11:30:36;;;;;;;;;;;22.30;54.10;;;16.11;61.29;96403.25;5013553;28;19945;-51
2022/11/02 11:33:05;;;;;;;;;;;22.40;53.90;;;16.19;61.87;96398.03;4976808;28;19909;-54
2022/11/02 11:35:37;;;;;;;;;;;22.50;53.80;;;16.23;60.02;96394.81;5005681;28;20007;-49
2022/11/02 11:38:26;;;;;;;;;;;22.70;53.60;;;16.34;60.03;96391.75;4992815;28;19919;-53
2022/11/02 11:40:57;;;;;;;;;;;23.10;53.40;;;16.47;59.12;96386.81;4986789;28;20291;-49
2022/11/02 11:43:37;;;;;;;;;;;23.50;53.10;;;16.69;58.38;96389.84;4979378;28;20004;-51
2022/11/02 11:46:07;;;;;;;;;;;23.50;52.90;;;16.66;57.63;96382.34;4986424;28;19916;-49
2022/11/02 11:48:58;;;;;;;;;;;23.60;52.80;;;16.71;57.32;96379.59;4995814;28;19960;-54
2022/11/02 11:51:40;;;;;;;;;;;23.60;52.50;;;16.73;55.97;96376.63;4982206;28;20333;-49
2022/11/02 11:54:32;;;;;;;;;;;23.60;52.30;;;16.83;57.53;96382.75;4979572;28;20286;-49
2022/11/02 11:57:24;;;;;;;;;;;23.60;52.20;;;16.88;56.59;96384.56;4989549;28;19913;-54
2022/11/02 11:59:54;;;;;;;;;;;23.60;52.10;;;16.83;55.96;96377.38;5006138;28;21054;-53